Time;durP1;ratioP1;P1;durP2;ratioP2;P2;SDS_P1;SDS_P2;PMS_P1;PMS_P2;Temp;Humidity;BMP_temperature;BMP_pressure;BME280_temperature;BME280_humidity;BME280_pressure;Samples;Min_cycle;Max_cycle;Signal;HPM_P1;HPM_P2
2023/08/22 00:01:04;;;;;;;7.68;5.00;;;20.20;99.90;;;;;;5037054;28;20026;-72
2023/08/22 00:03:29;;;;;;;6.38;5.40;;;20.20;99.90;;;;;;5037245;28;20072;-72
2023/08/22 00:05:56;;;;;;;8.48;5.30;;;20.20;99.90;;;;;;5037313;28;20080;-72
2023/08/22 00:08:21;;;;;;;5.72;4.85;;;20.20;99.90;;;;;;5037099;28;20025;-72
2023/08/22 00:10:47;;;;;;;6.13;4.65;;;20.20;99.90;;;;;;5036962;28;20420;-72
2023/08/22 00:13:13;;;;;;;7.00;4.50;;;20.20;99.90;;;;;;5036934;28;20029;-72
2023/08/22 00:15:39;;;;;;;6.70;4.55;;;20.20;99.90;;;;;;5037158;28;20022;-72
2023/08/22 00:18:05;;;;;;;7.68;5.20;;;20.20;99.90;;;;;;5036819;28;20057;-72
2023/08/22 00:20:31;;;;;;;8.30;5.60;;;20.20;99.90;;;;;;5035733;28;20072;-72
2023/08/22 00:22:57;;;;;;;6.82;4.78;;;20.20;99.90;;;;;;5036717;28;20028;-72
2023/08/22 00:25:22;;;;;;;6.82;4.72;;;20.20;99.90;;;;;;5035436;28;20025;-72
2023/08/22 00:27:48;;;;;;;5.45;4.70;;;20.20;99.90;;;;;;5036685;28;20087;-72
2023/08/22 00:30:14;;;;;;;6.57;4.70;;;20.20;99.90;;;;;;5036637;28;20480;-72
2023/08/22 00:32:39;;;;;;;5.85;4.30;;;20.20;99.90;;;;;;5036604;28;20119;-72
2023/08/22 00:35:05;;;;;;;7.07;4.75;;;20.10;99.90;;;;;;5036673;28;20034;-72
2023/08/22 00:37:31;;;;;;;5.68;4.22;;;20.10;99.90;;;;;;5035244;28;20034;-72
2023/08/22 00:39:57;;;;;;;7.80;4.97;;;20.00;99.90;;;;;;5036497;28;20099;-72
2023/08/22 00:42:22;;;;;;;6.63;4.50;;;20.00;99.90;;;;;;5035881;28;20475;-72
2023/08/22 00:44:48;;;;;;;7.13;5.45;;;19.90;99.90;;;;;;5045260;28;20079;-72
2023/08/22 00:47:16;;;;;;;6.45;4.63;;;19.90;99.90;;;;;;5056237;28;20033;-72
2023/08/22 00:49:42;;;;;;;6.63;5.43;;;19.90;99.90;;;;;;5056213;28;20029;-72
2023/08/22 00:52:08;;;;;;;5.95;4.63;;;19.90;99.90;;;;;;5056221;28;20499;-72
2023/08/22 00:54:34;;;;;;;7.80;4.65;;;19.80;99.90;;;;;;5056143;28;20082;-72
2023/08/22 00:57:00;;;;;;;9.50;5.07;;;19.80;99.90;;;;;;5056018;28;20108;-72
2023/08/22 00:59:27;;;;;;;6.22;4.60;;;19.80;99.90;;;;;;5055903;28;20064;-72
2023/08/22 01:01:53;;;;;;;6.40;4.72;;;19.70;99.90;;;;;;5056041;28;20021;-72
2023/08/22 01:04:19;;;;;;;6.22;4.75;;;19.70;99.90;;;;;;5056243;28;20021;-72
2023/08/22 01:06:51;;;;;;;6.63;4.85;;;19.70;99.90;;;;;;5040432;28;20033;-72
2023/08/22 01:09:27;;;;;;;6.43;4.95;;;19.70;99.90;;;;;;5033564;28;20018;-72
2023/08/22 01:12:19;;;;;;;7.70;5.22;;;19.70;99.90;;;;;;5035470;28;20025;-72
2023/08/22 01:14:53;;;;;;;7.03;4.75;;;19.50;99.90;;;;;;5024520;28;20048;-72
2023/08/22 01:17:19;;;;;;;9.70;5.45;;;19.50;99.90;;;;;;5029466;28;20021;-72
2023/08/22 01:19:45;;;;;;;6.00;4.63;;;19.50;99.90;;;;;;5027578;28;20025;-74
2023/08/22 01:22:10;;;;;;;8.30;4.95;;;19.40;99.90;;;;;;5034697;28;20022;-72
2023/08/22 01:24:36;;;;;;;6.95;5.05;;;19.40;99.90;;;;;;5035305;28;20022;-72
2023/08/22 01:27:02;;;;;;;6.57;4.85;;;19.40;99.90;;;;;;5034448;28;20033;-72
2023/08/22 01:29:36;;;;;;;7.03;5.18;;;19.40;99.90;;;;;;5034838;28;20084;-72
2023/08/22 01:32:09;;;;;;;7.47;4.57;;;19.40;99.90;;;;;;5035323;28;20025;-72
2023/08/22 01:34:38;;;;;;;6.82;4.63;;;19.40;99.90;;;;;;5035293;28;20079;-72
2023/08/22 01:37:06;;;;;;;7.57;5.05;;;19.30;99.90;;;;;;5035148;28;20032;-72
2023/08/22 01:39:33;;;;;;;9.00;4.85;;;19.30;99.90;;;;;;5034962;28;20021;-72
2023/08/22 01:42:00;;;;;;;7.57;5.03;;;19.20;99.90;;;;;;5034034;28;20105;-72
2023/08/22 01:44:28;;;;;;;6.95;5.20;;;19.10;99.90;;;;;;5035240;28;20045;-72
2023/08/22 01:46:53;;;;;;;8.45;5.13;;;19.10;99.90;;;;;;5034038;28;20029;-72
2023/08/22 01:49:19;;;;;;;6.97;4.95;;;19.10;99.90;;;;;;5033824;28;20056;-72
2023/08/22 01:51:44;;;;;;;8.32;5.20;;;19.10;99.90;;;;;;5035021;28;20107;-72
2023/08/22 01:54:10;;;;;;;6.45;5.00;;;19.00;99.90;;;;;;5035099;28;20175;-72
2023/08/22 01:56:36;;;;;;;7.95;5.65;;;19.00;99.90;;;;;;5034909;28;20048;-74
2023/08/22 01:59:02;;;;;;;7.40;5.25;;;19.00;99.90;;;;;;5034940;28;20029;-72
2023/08/22 02:01:27;;;;;;;6.72;5.00;;;19.00;99.90;;;;;;5033685;28;20030;-72
2023/08/22 02:03:53;;;;;;;5.72;5.00;;;19.00;99.90;;;;;;5034849;28;20029;-72
2023/08/22 02:06:19;;;;;;;7.25;5.18;;;19.00;99.90;;;;;;5034969;28;20033;-72
2023/08/22 02:08:44;;;;;;;6.70;4.88;;;19.00;99.90;;;;;;5033498;28;20029;-72
2023/08/22 02:11:10;;;;;;;8.93;5.28;;;18.90;99.90;;;;;;5034924;28;20030;-72
2023/08/22 02:13:35;;;;;;;8.25;4.90;;;18.90;99.90;;;;;;5033765;28;20030;-72
2023/08/22 02:16:01;;;;;;;7.25;6.43;;;18.90;99.90;;;;;;5034538;28;20113;-73
2023/08/22 02:18:27;;;;;;;9.63;6.35;;;18.80;99.90;;;;;;5034651;28;20049;-72
2023/08/22 02:20:55;;;;;;;10.63;6.20;;;18.70;99.90;;;;;;5034450;28;20475;-72
2023/08/22 02:23:21;;;;;;;8.00;6.07;;;18.70;99.90;;;;;;5033666;28;20026;-72
2023/08/22 02:25:46;;;;;;;9.15;5.57;;;18.60;99.90;;;;;;5034471;28;20029;-72
2023/08/22 02:28:12;;;;;;;7.90;5.60;;;18.60;99.90;;;;;;5033326;28;20034;-72
2023/08/22 02:30:38;;;;;;;6.85;5.35;;;18.60;99.90;;;;;;5034458;28;20025;-72
2023/08/22 02:33:04;;;;;;;7.93;5.43;;;18.60;99.90;;;;;;5034427;28;20033;-72
2023/08/22 02:35:31;;;;;;;9.30;5.75;;;18.60;99.90;;;;;;5034410;28;20029;-72
2023/08/22 02:37:57;;;;;;;6.97;5.15;;;18.50;99.90;;;;;;5034149;28;20079;-72
2023/08/22 02:40:22;;;;;;;6.57;5.45;;;18.40;99.90;;;;;;5034720;28;20104;-72
2023/08/22 02:42:48;;;;;;;6.55;5.00;;;18.30;99.90;;;;;;5034411;28;20021;-72
2023/08/22 02:45:14;;;;;;;7.60;5.30;;;18.30;99.90;;;;;;5034069;28;20044;-72
2023/08/22 02:47:40;;;;;;;7.85;5.05;;;18.30;99.90;;;;;;5034067;28;20042;-74
2023/08/22 02:50:06;;;;;;;7.43;5.05;;;18.30;99.90;;;;;;5044881;28;20037;-72
2023/08/22 02:52:32;;;;;;;7.68;4.88;;;18.30;99.90;;;;;;5054385;28;20021;-74
2023/08/22 02:55:05;;;;;;;8.98;5.40;;;18.30;99.90;;;;;;5112082;27;20409;-74
2023/08/22 02:57:31;;;;;;;6.65;4.88;;;18.30;99.90;;;;;;5093250;28;20028;-74
2023/08/22 02:59:56;;;;;;;7.90;4.82;;;18.30;99.90;;;;;;5120649;28;20027;-74
2023/08/22 03:02:22;;;;;;;6.18;5.10;;;18.30;99.90;;;;;;5113268;28;20035;-73
2023/08/22 03:04:48;;;;;;;6.45;5.03;;;18.30;99.90;;;;;;5131713;28;20035;-74
2023/08/22 03:07:13;;;;;;;8.48;5.55;;;18.30;99.90;;;;;;5131722;28;20398;-74
2023/08/22 03:09:40;;;;;;;6.40;5.10;;;18.30;99.90;;;;;;5131624;28;20028;-74
2023/08/22 03:12:05;;;;;;;8.25;5.57;;;18.30;99.90;;;;;;5131790;28;20031;-74
2023/08/22 03:14:31;;;;;;;7.28;5.38;;;18.30;99.90;;;;;;5113024;28;20395;-74
2023/08/22 03:16:57;;;;;;;6.82;5.38;;;18.30;99.90;;;;;;5113007;28;20028;-74
2023/08/22 03:19:22;;;;;;;8.35;5.35;;;18.20;99.90;;;;;;5131451;28;20038;-74
2023/08/22 03:21:48;;;;;;;7.25;5.43;;;18.20;99.90;;;;;;5131871;28;20023;-74
2023/08/22 03:24:14;;;;;;;8.45;5.38;;;18.20;99.90;;;;;;5131223;28;20039;-73
2023/08/22 03:26:39;;;;;;;9.25;5.80;;;18.10;99.90;;;;;;5131241;28;20028;-73
2023/08/22 03:29:05;;;;;;;9.40;5.97;;;18.10;99.90;;;;;;5112899;28;20024;-74
2023/08/22 03:31:31;;;;;;;8.10;5.70;;;18.00;99.90;;;;;;5131256;28;20077;-74
2023/08/22 03:33:56;;;;;;;8.13;6.18;;;18.00;99.90;;;;;;5131280;28;20484;-74
2023/08/22 03:36:22;;;;;;;9.43;5.90;;;18.00;99.90;;;;;;5131368;28;20417;-74
2023/08/22 03:38:51;;;;;;;7.07;6.10;;;18.00;99.90;;;;;;5131411;28;20042;-74
2023/08/22 03:41:17;;;;;;;9.55;5.75;;;17.90;99.90;;;;;;5130760;28;20492;-74
2023/08/22 03:43:43;;;;;;;6.40;5.63;;;17.90;99.90;;;;;;5130901;28;20039;-74
2023/08/22 03:46:09;;;;;;;10.90;5.65;;;17.90;99.90;;;;;;5130684;28;20031;-73
2023/08/22 03:48:34;;;;;;;8.02;5.63;;;17.90;99.90;;;;;;5130853;28;20023;-73
2023/08/22 03:51:04;;;;;;;8.35;5.80;;;17.90;99.90;;;;;;5130746;28;20153;-74
2023/08/22 03:53:29;;;;;;;8.30;5.78;;;17.80;99.90;;;;;;5130418;28;20423;-73
2023/08/22 03:55:55;;;;;;;7.38;5.93;;;17.80;99.90;;;;;;5130460;28;20024;-73
2023/08/22 03:58:21;;;;;;;9.48;5.80;;;17.80;99.90;;;;;;5129450;28;20536;-73
2023/08/22 04:00:46;;;;;;;12.45;6.60;;;17.70;99.90;;;;;;5128288;28;20507;-73
2023/08/22 04:03:12;;;;;;;10.95;6.30;;;17.70;99.90;;;;;;5109937;28;20503;-73
2023/08/22 04:05:42;;;;;;;9.48;6.03;;;17.70;99.90;;;;;;5119729;28;20039;-73
2023/08/22 04:08:07;;;;;;;9.30;5.75;;;17.60;99.90;;;;;;5115920;28;20136;-73
2023/08/22 04:10:33;;;;;;;8.15;6.28;;;17.60;99.90;;;;;;5097842;28;20535;-73
2023/08/22 04:12:59;;;;;;;9.93;5.70;;;17.60;99.90;;;;;;5097706;28;20036;-73
2023/08/22 04:15:24;;;;;;;7.05;5.53;;;17.60;99.90;;;;;;5116351;28;20103;-73
2023/08/22 04:17:50;;;;;;;8.48;5.15;;;17.60;99.90;;;;;;5116651;28;20059;-73
2023/08/22 04:20:16;;;;;;;8.88;5.65;;;17.50;99.90;;;;;;5116492;28;20475;-73
2023/08/22 04:22:41;;;;;;;6.55;5.38;;;17.50;99.90;;;;;;5116496;28;20478;-73
2023/08/22 04:25:09;;;;;;;7.72;5.35;;;17.40;99.90;;;;;;5116382;28;20028;-73
2023/08/22 04:27:35;;;;;;;6.82;5.03;;;17.40;99.90;;;;;;5116638;28;20381;-73
2023/08/22 04:30:01;;;;;;;6.68;5.28;;;17.40;99.90;;;;;;5116418;28;20064;-73
2023/08/22 04:32:27;;;;;;;8.32;5.50;;;17.40;99.90;;;;;;5116357;28;20141;-73
2023/08/22 04:34:53;;;;;;;8.98;5.13;;;17.30;99.90;;;;;;5116217;28;20463;-73
2023/08/22 04:37:19;;;;;;;8.82;5.90;;;17.30;99.90;;;;;;5116206;28;20023;-73
2023/08/22 04:39:44;;;;;;;9.43;5.95;;;17.20;99.90;;;;;;5081024;28;20020;-73
2023/08/22 04:42:10;;;;;;;8.68;5.40;;;17.20;99.90;;;;;;5116376;28;20031;-73
2023/08/22 04:44:36;;;;;;;8.18;5.70;;;17.20;99.90;;;;;;5116349;28;20032;-73
2023/08/22 04:47:01;;;;;;;8.90;5.38;;;17.20;99.90;;;;;;5098308;28;20038;-73
2023/08/22 04:49:27;;;;;;;9.25;5.95;;;17.20;99.90;;;;;;5116150;28;20028;-73
2023/08/22 04:51:53;;;;;;;7.18;5.45;;;17.20;99.90;;;;;;5116313;28;20373;-73
2023/08/22 04:54:18;;;;;;;9.40;4.93;;;17.30;99.90;;;;;;5116041;28;20054;-73
2023/08/22 04:56:44;;;;;;;6.65;5.03;;;17.20;99.90;;;;;;5097839;28;20110;-73
2023/08/22 04:59:10;;;;;;;12.80;5.45;;;17.20;99.90;;;;;;5117924;27;20024;-75
2023/08/22 05:01:35;;;;;;;10.07;6.10;;;17.20;99.90;;;;;;5116349;28;20034;-74
2023/08/22 05:04:01;;;;;;;6.45;5.53;;;17.20;99.90;;;;;;5115729;28;20507;-75
2023/08/22 05:06:27;;;;;;;8.52;6.00;;;17.10;99.90;;;;;;5115681;28;20027;-75
2023/08/22 05:08:52;;;;;;;8.30;5.35;;;17.10;99.90;;;;;;5115551;28;20027;-74
2023/08/22 05:11:18;;;;;;;6.95;5.72;;;17.10;99.90;;;;;;5115622;28;20510;-75
2023/08/22 05:13:44;;;;;;;8.02;5.63;;;17.10;99.90;;;;;;5115604;28;20024;-74
2023/08/22 05:16:09;;;;;;;7.88;5.43;;;17.20;99.90;;;;;;5114961;28;20032;-74
2023/08/22 05:18:35;;;;;;;9.60;5.82;;;17.20;99.90;;;;;;5096820;28;20027;-75
2023/08/22 05:21:00;;;;;;;6.72;5.90;;;17.20;99.90;;;;;;5115361;28;20393;-74
2023/08/22 05:23:26;;;;;;;8.80;5.82;;;17.20;99.90;;;;;;5115335;28;20035;-74
2023/08/22 05:25:52;;;;;;;9.05;6.38;;;17.20;99.90;;;;;;5115319;28;20498;-75
2023/08/22 05:28:18;;;;;;;6.85;5.38;;;17.20;99.90;;;;;;5115081;28;20092;-74
2023/08/22 05:30:43;;;;;;;9.02;5.95;;;17.30;99.90;;;;;;5115169;28;20038;-74
2023/08/22 05:33:09;;;;;;;10.02;6.65;;;17.30;99.90;;;;;;5115149;28;20078;-75
2023/08/22 05:35:35;;;;;;;8.57;6.28;;;17.30;99.90;;;;;;5115367;28;20058;-75
2023/08/22 05:38:01;;;;;;;10.50;5.82;;;17.30;99.90;;;;;;5115272;28;20357;-75
2023/08/22 05:40:26;;;;;;;8.10;6.03;;;17.30;99.90;;;;;;5115052;28;20055;-74
2023/08/22 05:42:52;;;;;;;6.93;5.65;;;17.30;99.90;;;;;;5097201;28;20051;-74
2023/08/22 05:45:18;;;;;;;8.52;6.13;;;17.40;99.90;;;;;;5114880;28;20023;-73
2023/08/22 05:47:44;;;;;;;8.02;5.90;;;17.40;99.90;;;;;;5096544;28;20026;-75
2023/08/22 05:50:12;;;;;;;10.20;6.63;;;17.40;99.90;;;;;;5096536;28;20024;-75
2023/08/22 05:52:38;;;;;;;12.55;6.38;;;17.50;99.90;;;;;;5114578;28;20047;-76
2023/08/22 05:55:04;;;;;;;9.57;6.82;;;17.50;99.90;;;;;;5096479;28;20472;-75
2023/08/22 05:57:29;;;;;;;7.25;6.35;;;17.50;99.90;;;;;;5115086;28;20051;-75
2023/08/22 05:59:56;;;;;;;8.77;6.53;;;17.60;99.90;;;;;;5114532;28;20100;-75
2023/08/22 06:02:22;;;;;;;8.30;5.97;;;17.60;99.90;;;;;;5096621;28;20499;-74
2023/08/22 06:04:47;;;;;;;8.15;6.30;;;17.70;99.90;;;;;;5113836;28;20097;-74
2023/08/22 06:07:13;;;;;;;7.70;5.90;;;17.70;99.90;;;;;;5113426;28;20024;-75
2023/08/22 06:09:39;;;;;;;8.32;6.50;;;17.80;99.90;;;;;;5114559;28;20069;-75
2023/08/22 06:12:06;;;;;;;11.20;6.43;;;17.80;99.90;;;;;;5114484;28;20024;-75
2023/08/22 06:14:31;;;;;;;9.60;6.63;;;17.90;99.90;;;;;;5114583;28;20429;-75
2023/08/22 06:17:00;;;;;;;9.48;6.28;;;17.90;99.90;;;;;;5114260;28;20031;-75
2023/08/22 06:19:26;;;;;;;10.02;6.50;;;18.00;99.90;;;;;;5114348;28;20019;-75
2023/08/22 06:21:52;;;;;;;9.73;6.57;;;18.10;99.90;;;;;;5114197;28;20030;-75
2023/08/22 06:24:17;;;;;;;10.25;7.28;;;18.20;99.90;;;;;;5114286;28;20084;-75
2023/08/22 06:26:43;;;;;;;10.50;7.03;;;18.20;99.90;;;;;;5112926;28;20031;-75
2023/08/22 06:29:09;;;;;;;9.13;6.13;;;18.30;99.90;;;;;;5113873;28;20031;-75
2023/08/22 06:31:35;;;;;;;8.18;6.47;;;18.40;99.90;;;;;;5114676;28;20026;-75
2023/08/22 06:34:01;;;;;;;8.93;6.95;;;18.40;99.90;;;;;;5114120;28;20381;-75
2023/08/22 06:36:27;;;;;;;9.95;7.50;;;18.50;99.90;;;;;;5114075;28;20016;-75
2023/08/22 06:38:53;;;;;;;9.90;7.28;;;18.60;99.90;;;;;;5113948;28;20026;-75
2023/08/22 06:41:19;;;;;;;10.52;6.97;;;18.70;99.90;;;;;;5113986;28;20078;-75
2023/08/22 06:43:46;;;;;;;11.75;7.43;;;18.80;99.90;;;;;;5113954;28;20110;-75
2023/08/22 06:46:12;;;;;;;8.57;6.63;;;18.80;99.90;;;;;;5112600;28;20136;-75
2023/08/22 06:48:37;;;;;;;9.93;7.32;;;18.90;99.90;;;;;;5113930;28;20032;-75
2023/08/22 06:51:03;;;;;;;12.05;7.60;;;19.00;99.90;;;;;;5114065;28;20499;-75
2023/08/22 06:53:28;;;;;;;8.82;6.00;;;19.00;99.90;;;;;;5113632;28;20493;-75
2023/08/22 06:55:55;;;;;;;12.05;8.10;;;19.10;99.90;;;;;;5095602;28;20122;-75
2023/08/22 06:58:21;;;;;;;9.63;7.45;;;19.20;99.90;;;;;;5114376;28;20538;-75
2023/08/22 07:00:48;;;;;;;12.40;8.13;;;19.30;99.90;;;;;;5114286;28;20106;-75
2023/08/22 07:03:13;;;;;;;12.32;8.10;;;19.40;99.90;;;;;;5113747;28;20364;-75
2023/08/22 07:05:39;;;;;;;9.65;7.80;;;19.40;99.90;;;;;;5113751;28;20027;-75
2023/08/22 07:08:05;;;;;;;12.25;8.60;;;19.50;99.90;;;;;;5113804;28;20023;-75
2023/08/22 07:10:31;;;;;;;12.18;7.80;;;19.60;99.90;;;;;;5114458;28;20346;-75
2023/08/22 07:12:57;;;;;;;12.68;8.48;;;19.70;99.90;;;;;;5112491;28;20085;-75
2023/08/22 07:15:22;;;;;;;11.43;8.23;;;19.80;99.90;;;;;;5113677;28;20054;-75
2023/08/22 07:17:48;;;;;;;9.75;8.07;;;19.90;99.90;;;;;;5113618;28;20031;-75
2023/08/22 07:20:14;;;;;;;15.73;9.13;;;20.00;99.90;;;;;;5113765;28;20034;-75
2023/08/22 07:22:40;;;;;;;12.48;8.80;;;20.10;99.90;;;;;;5113715;28;20096;-75
2023/08/22 07:25:06;;;;;;;13.70;8.65;;;20.20;99.90;;;;;;5113521;28;20527;-75
2023/08/22 07:27:31;;;;;;;12.93;8.65;;;20.30;99.90;;;;;;5113403;28;20047;-75
2023/08/22 07:29:57;;;;;;;11.63;7.90;;;20.40;99.90;;;;;;5112142;28;20132;-73
2023/08/22 07:32:23;;;;;;;13.55;8.50;;;20.50;99.90;;;;;;5113602;28;20031;-73
2023/08/22 07:34:48;;;;;;;11.27;7.78;;;20.60;99.90;;;;;;5113405;28;20106;-73
2023/08/22 07:37:15;;;;;;;11.70;8.25;;;20.70;99.90;;;;;;5113406;28;20024;-73
2023/08/22 07:39:41;;;;;;;12.20;7.70;;;20.80;99.90;;;;;;5113541;28;20054;-73
2023/08/22 07:42:07;;;;;;;9.27;7.53;;;20.90;99.90;;;;;;5117411;28;20028;-73
2023/08/22 07:44:33;;;;;;;10.48;7.60;;;21.00;99.90;;;;;;5116011;28;20036;-73
2023/08/22 07:46:59;;;;;;;9.98;7.13;;;21.20;99.90;;;;;;5117210;28;20027;-73
2023/08/22 07:49:25;;;;;;;11.23;7.82;;;21.20;99.90;;;;;;5117350;28;20032;-73
2023/08/22 07:51:51;;;;;;;11.35;8.25;;;21.40;99.90;;;;;;5117076;28;20028;-73
2023/08/22 07:54:17;;;;;;;12.82;8.43;;;21.50;99.90;;;;;;5117017;28;20385;-73
2023/08/22 07:56:44;;;;;;;11.98;8.45;;;21.60;99.90;;;;;;5117024;28;20069;-73
2023/08/22 07:59:10;;;;;;;10.38;8.07;;;21.70;99.90;;;;;;5116854;28;20027;-73
2023/08/22 08:01:35;;;;;;;11.23;7.45;;;21.90;99.90;;;;;;5116917;28;20035;-73
2023/08/22 08:04:02;;;;;;;11.98;8.05;;;22.00;99.90;;;;;;5116870;28;20460;-73
2023/08/22 08:06:33;;;;;;;11.52;7.50;;;22.10;99.90;;;;;;5116913;28;20108;-73
2023/08/22 08:08:59;;;;;;;;;;;22.20;99.90;;;;;;5115926;28;20039;-73
2023/08/22 08:11:24;;;;;;;9.32;7.30;;;22.30;99.90;;;;;;5116819;28;19908;-73
2023/08/22 08:13:50;;;;;;;8.57;6.78;;;22.50;99.90;;;;;;5117309;28;20032;-73
2023/08/22 08:16:16;;;;;;;12.95;7.60;;;22.60;99.90;;;;;;5116983;28;20471;-73
2023/08/22 08:18:42;;;;;;;11.23;7.30;;;22.80;99.90;;;;;;5116902;28;20024;-73
2023/08/22 08:21:07;;;;;;;11.38;6.88;;;22.90;99.90;;;;;;5117415;28;20042;-73
2023/08/22 08:23:33;;;;;;;9.63;7.38;;;23.10;99.90;;;;;;5116604;28;20051;-73
2023/08/22 08:25:59;;;;;;;15.05;6.70;;;23.20;99.90;;;;;;5116696;28;20020;-73
2023/08/22 08:28:25;;;;;;;10.93;7.07;;;23.40;99.90;;;;;;5116918;28;20028;-73
2023/08/22 08:30:50;;;;;;;9.45;7.00;;;23.50;99.90;;;;;;5116604;28;20032;-72
2023/08/22 08:33:16;;;;;;;9.02;6.40;;;23.70;99.90;;;;;;5116425;28;20076;-73
2023/08/22 08:35:42;;;;;;;8.63;6.13;;;23.90;99.90;;;;;;5115533;28;20024;-73
2023/08/22 08:38:07;;;;;;;11.00;6.20;;;24.00;99.90;;;;;;5116303;28;20038;-73
2023/08/22 08:40:36;;;;;;;7.75;6.28;;;24.10;99.90;;;;;;5114894;28;20085;-73
2023/08/22 08:43:05;;;;;;;9.55;6.75;;;24.30;99.90;;;;;;5114861;28;20020;-73
2023/08/22 08:45:33;;;;;;;7.78;6.65;;;24.40;99.90;;;;;;5116508;28;20032;-73
2023/08/22 08:47:59;;;;;;;11.40;7.18;;;24.60;99.90;;;;;;5116145;28;20031;-73
2023/08/22 08:50:26;;;;;;;10.07;8.10;;;24.70;99.90;;;;;;5116200;28;20020;-73
2023/08/22 08:52:52;;;;;;;10.35;7.30;;;24.80;99.90;;;;;;5115830;28;20024;-73
2023/08/22 08:55:18;;;;;;;8.82;7.13;;;25.00;99.90;;;;;;5115974;28;20544;-73
2023/08/22 08:57:44;;;;;;;9.27;7.25;;;25.10;99.90;;;;;;5115864;28;20028;-73
2023/08/22 09:00:10;;;;;;;11.52;6.82;;;25.30;99.90;;;;;;5115880;28;20476;-73
2023/08/22 09:02:35;;;;;;;9.02;6.80;;;25.40;99.90;;;;;;5115769;28;20523;-73
2023/08/22 09:05:04;;;;;;;15.02;7.80;;;25.60;99.90;;;;;;5114821;28;20111;-73
2023/08/22 09:07:30;;;;;;;10.90;6.95;;;25.80;99.90;;;;;;5115658;28;20020;-73
2023/08/22 09:09:58;;;;;;;9.73;7.63;;;25.90;99.90;;;;;;5115697;28;20028;-73
2023/08/22 09:12:32;;;;;;;9.93;7.50;;;26.10;99.90;;;;;;5115858;28;20027;-73
2023/08/22 09:14:58;;;;;;;8.25;7.25;;;26.20;99.90;;;;;;5115585;28;20151;-73
2023/08/22 09:17:28;;;;;;;10.07;7.85;;;26.40;99.90;;;;;;5115484;28;20025;-73
2023/08/22 09:19:53;;;;;;;9.27;7.43;;;26.50;99.90;;;;;;5115316;28;20472;-73
2023/08/22 09:22:19;;;;;;;10.95;7.82;;;26.60;99.90;;;;;;5115351;28;20269;-73
2023/08/22 09:24:52;;;;;;;9.50;6.60;;;26.70;99.90;;;;;;5115280;28;20028;-73
2023/08/22 09:27:24;;;;;;;11.23;6.80;;;26.80;99.90;;;;;;5115487;28;20031;-73
2023/08/22 09:29:50;;;;;;;8.75;7.13;;;27.00;99.90;;;;;;5115114;28;20036;-73
2023/08/22 09:32:16;;;;;;;10.38;6.97;;;27.00;99.90;;;;;;5115205;28;20031;-73
2023/08/22 09:34:56;;;;;;;13.10;6.45;;;27.10;99.90;;;;;;5115332;28;20035;-74
2023/08/22 09:37:34;;;;;;;9.43;6.43;;;27.30;99.90;;;;;;5115129;28;20095;-73
2023/08/22 09:40:03;;;;;;;9.85;6.30;;;27.40;99.30;;;;;;5114916;28;20502;-73
2023/08/22 09:42:30;;;;;;;10.32;6.80;;;27.50;98.90;;;;;;5114960;28;20384;-73
2023/08/22 09:44:57;;;;;;;9.00;6.55;;;27.60;98.50;;;;;;5114972;28;20123;-73
2023/08/22 09:47:30;;;;;;;10.68;6.47;;;27.70;97.90;;;;;;5115201;28;20023;-75
2023/08/22 09:49:59;;;;;;;9.60;6.38;;;27.90;97.60;;;;;;5114811;28;20537;-76
2023/08/22 09:52:26;;;;;;;8.40;6.03;;;28.00;97.20;;;;;;5114889;28;20055;-76
2023/08/22 09:54:52;;;;;;;6.97;5.53;;;28.10;96.00;;;;;;5114593;28;20376;-73
2023/08/22 09:57:19;;;;;;;9.45;5.80;;;28.20;96.10;;;;;;5114796;28;20051;-74
2023/08/22 09:59:48;;;;;;;10.18;6.15;;;28.40;95.30;;;;;;5113324;28;20027;-73
2023/08/22 10:02:15;;;;;;;7.97;5.20;;;28.40;93.80;;;;;;5114527;28;20016;-73
2023/08/22 10:04:41;;;;;;;9.25;5.85;;;28.50;93.90;;;;;;5114358;28;20038;-73
2023/08/22 10:07:08;;;;;;;7.90;5.60;;;28.60;92.20;;;;;;5114815;28;20383;-74
2023/08/22 10:09:34;;;;;;;8.80;5.22;;;28.70;93.50;;;;;;5114409;28;20032;-74
2023/08/22 10:12:04;;;;;;;8.73;6.18;;;28.90;94.10;;;;;;5113697;28;20047;-74
2023/08/22 10:14:33;;;;;;;10.00;6.18;;;29.00;93.60;;;;;;5114277;28;20114;-74
2023/08/22 10:16:59;;;;;;;8.52;5.90;;;29.20;93.30;;;;;;5114426;28;20022;-73
2023/08/22 10:19:26;;;;;;;8.88;6.05;;;29.30;92.60;;;;;;5114591;28;20016;-74
2023/08/22 10:21:53;;;;;;;11.07;6.30;;;29.40;91.60;;;;;;5113106;28;20028;-74
2023/08/22 10:24:30;;;;;;;7.50;5.78;;;29.60;91.90;;;;;;5114170;27;20051;-74
2023/08/22 10:27:07;;;;;;;8.82;5.40;;;29.70;89.30;;;;;;5113827;28;20122;-74
2023/08/22 10:29:34;;;;;;;8.40;5.90;;;29.80;88.20;;;;;;5113840;28;20032;-74
2023/08/22 10:32:02;;;;;;;7.20;4.53;;;30.00;86.90;;;;;;5113635;28;20035;-73
2023/08/22 10:34:34;;;;;;;;;;;30.10;85.60;;;;;;5113332;28;20038;-73
2023/08/22 10:37:00;;;;;;;;;;;30.20;83.30;;;;;;5113962;28;19910;-74
2023/08/22 10:39:41;;;;;;;;;;;30.30;82.00;;;;;;5095510;28;19908;-73
2023/08/22 10:42:15;;;;;;;;;;;30.40;83.60;;;;;;5113817;28;20275;-74
2023/08/22 10:44:40;;;;;;;;;;;30.50;84.50;;;;;;5113849;28;19904;-73
2023/08/22 10:47:07;;;;;;;;;;;30.70;84.70;;;;;;5114112;28;19908;-73
2023/08/22 10:49:33;;;;;;;;;;;30.80;82.80;;;;;;5113810;28;19980;-74
2023/08/22 10:52:09;;;;;;;;;;;31.00;81.80;;;;;;5114102;28;19911;-74
2023/08/22 10:54:53;;;;;;;;;;;31.10;82.70;;;;;;5095384;28;19912;-73
2023/08/22 10:57:19;;;;;;;;;;;31.20;81.10;;;;;;5095573;28;19903;-74
2023/08/22 11:00:00;;;;;;;;;;;31.20;80.60;;;;;;5113496;28;20366;-74
2023/08/22 11:02:33;;;;;;;;;;;31.30;80.70;;;;;;5113585;28;19911;-74
2023/08/22 11:05:00;;;;;;;;;;;31.40;82.10;;;;;;5113493;28;20344;-74
2023/08/22 11:07:26;;;;;;;;;;;31.60;81.60;;;;;;5113538;28;19904;-73
2023/08/22 11:09:53;;;;;;;;;;;31.60;81.00;;;;;;5113525;28;19976;-74
2023/08/22 11:12:25;;;;;;;;;;;31.70;77.10;;;;;;5113645;28;19903;-73
2023/08/22 11:14:51;;;;;;;;;;;31.80;74.90;;;;;;5114010;28;19908;-74
2023/08/22 11:17:18;;;;;;;;;;;31.90;75.30;;;;;;5117700;28;19950;-74
2023/08/22 11:19:43;;;;;;;;;;;31.90;74.90;;;;;;5117547;28;19957;-74
2023/08/22 11:22:09;;;;;;;;;;;31.90;72.60;;;;;;5117622;28;19908;-73
2023/08/22 11:24:35;;;;;;;;;;;31.90;71.30;;;;;;5117759;28;19904;-74
2023/08/22 11:27:04;;;;;;;;;;;32.10;70.20;;;;;;5117483;28;19918;-74
2023/08/22 11:29:30;;;;;;;;;;;32.20;70.10;;;;;;5117439;28;19938;-74
2023/08/22 11:31:55;;;;;;;;;;;32.30;70.60;;;;;;5099280;28;19907;-74
2023/08/22 11:34:21;;;;;;;;;;;32.30;69.00;;;;;;5117340;28;19908;-74
2023/08/22 11:36:47;;;;;;;;;;;32.50;68.00;;;;;;5117210;28;19908;-74
2023/08/22 11:39:13;;;;;;;;;;;32.50;67.50;;;;;;5117281;28;20019;-74
2023/08/22 11:41:38;;;;;;;;;;;32.50;68.70;;;;;;5098976;28;19969;-74
2023/08/22 11:44:04;;;;;;;;;;;32.60;70.80;;;;;;5117697;28;19904;-73
2023/08/22 11:46:33;;;;;;;;;;;32.70;70.80;;;;;;5117227;28;19908;-73
2023/08/22 11:49:04;;;;;;;;;;;32.80;70.90;;;;;;5098863;28;19946;-73
2023/08/22 11:51:29;;;;;;;;;;;32.90;70.50;;;;;;5115915;28;19951;-73
2023/08/22 11:53:55;;;;;;;;;;;33.00;70.50;;;;;;5116651;28;19959;-72
2023/08/22 11:56:21;;;;;;;;;;;33.10;69.80;;;;;;5099552;28;19903;-72
2023/08/22 11:58:51;;;;;;;;;;;33.20;68.70;;;;;;5117760;28;19903;-72
2023/08/22 12:01:17;;;;;;;;;;;33.20;68.10;;;;;;5099337;28;19907;-72
2023/08/22 12:03:47;;;;;;;;;;;33.20;67.50;;;;;;5117592;28;20014;-72
2023/08/22 12:06:15;;;;;;;;;;;33.30;69.30;;;;;;5117291;28;20322;-72
2023/08/22 12:08:41;;;;;;;;;;;33.40;68.90;;;;;;5117280;28;19904;-72
2023/08/22 12:11:07;;;;;;;;;;;33.40;68.20;;;;;;5117137;28;19911;-72
2023/08/22 12:13:33;;;;;;;;;;;33.50;68.00;;;;;;5117044;28;19918;-72
2023/08/22 12:15:58;;;;;;;;;;;33.50;66.20;;;;;;5099138;28;19908;-72
2023/08/22 12:18:28;;;;;;;;;;;33.50;67.00;;;;;;5117123;28;20367;-72
2023/08/22 12:20:54;;;;;;;;;;;33.50;67.50;;;;;;5117082;28;19907;-73
2023/08/22 12:23:19;;;;;;;;;;;33.60;66.70;;;;;;5117028;28;20416;-72
2023/08/22 12:25:45;;;;;;;;;;;33.70;66.80;;;;;;5116468;28;20377;-72
2023/08/22 12:28:11;;;;;;;;;;;33.70;66.60;;;;;;5117230;28;19969;-72
2023/08/22 12:30:37;;;;;;;;;;;33.80;63.80;;;;;;5117282;28;19947;-72
2023/08/22 12:33:03;;;;;;;;;;;33.80;62.70;;;;;;5116562;28;19904;-72
2023/08/22 12:35:32;;;;;;;;;;;33.70;66.40;;;;;;5116652;28;19911;-72
2023/08/22 12:37:58;;;;;;;;;;;33.70;63.50;;;;;;5117039;28;19907;-72
2023/08/22 12:40:23;;;;;;;;;;;33.70;65.60;;;;;;5116243;28;20260;-73
2023/08/22 12:42:49;;;;;;;;;;;33.70;65.40;;;;;;5098830;28;19914;-72
2023/08/22 12:45:15;;;;;;;;;;;33.80;64.50;;;;;;5116907;28;20002;-72
2023/08/22 12:47:43;;;;;;;;;;;33.70;63.60;;;;;;5117188;28;19908;-72
2023/08/22 12:50:10;;;;;;;;;;;33.70;64.20;;;;;;5098134;28;20372;-73
2023/08/22 12:52:35;;;;;;;;;;;33.60;64.40;;;;;;5096820;28;19919;-72
2023/08/22 12:55:02;;;;;;;;;;;33.60;64.50;;;;;;5093514;28;19961;-72
2023/08/22 12:57:28;;;;;;;;;;;33.60;62.90;;;;;;5116268;28;20484;-73